createdAt,value
2023-02-06T00:01:43.011Z,71.88
2023-02-06T00:04:12.808Z,72.98
2023-02-06T00:06:41.131Z,72.29
2023-02-06T00:09:34.674Z,72.48
2023-02-06T00:12:02.720Z,72.20
2023-02-06T00:14:30.812Z,71.40
2023-02-06T00:17:01.016Z,71.87
2023-02-06T00:19:30.429Z,72.32
2023-02-06T00:21:58.461Z,73.09
2023-02-06T00:24:26.499Z,72.81
2023-02-06T00:26:54.576Z,72.45
2023-02-06T00:29:22.612Z,72.66
2023-02-06T00:31:50.695Z,71.69
2023-02-06T00:34:18.826Z,72.75
2023-02-06T00:36:48.199Z,73.19
2023-02-06T00:39:16.259Z,72.11
2023-02-06T00:41:44.307Z,72.19
2023-02-06T00:44:12.617Z,72.62
2023-02-06T00:46:40.762Z,72.55
2023-02-06T00:49:08.806Z,72.65
2023-02-06T00:51:38.815Z,73.14
2023-02-06T00:54:09.963Z,72.48
2023-02-06T00:56:38.203Z,73.15
2023-02-06T00:59:06.236Z,72.47
2023-02-06T01:01:34.322Z,72.57
2023-02-06T01:04:02.434Z,72.54
2023-02-06T01:06:31.917Z,71.97
2023-02-06T01:09:00.249Z,72.53
2023-02-06T01:11:30.824Z,72.21
2023-02-06T01:13:59.072Z,72.52
2023-02-06T01:16:27.135Z,72.31
2023-02-06T01:18:55.570Z,71.65
2023-02-06T01:21:26.424Z,71.53
2023-02-06T01:23:58.837Z,71.71
2023-02-06T01:26:28.320Z,72.27
2023-02-06T01:28:59.018Z,72.54
2023-02-06T01:31:29.921Z,72.38
2023-02-06T01:34:00.168Z,72.12
2023-02-06T01:36:28.804Z,71.99
2023-02-06T01:38:58.053Z,72.17
2023-02-06T01:41:26.316Z,72.17
2023-02-06T01:44:17.363Z,72.93
2023-02-06T01:46:47.874Z,72.62
2023-02-06T01:49:22.077Z,72.98
2023-02-06T01:51:52.485Z,73.12
2023-02-06T01:54:22.041Z,72.48
2023-02-06T01:56:55.728Z,72.69
2023-02-06T01:59:26.471Z,72.20
2023-02-06T02:01:54.614Z,71.87
2023-02-06T02:04:25.349Z,72.32
2023-02-06T02:07:06.753Z,72.93
2023-02-06T02:09:36.164Z,72.96
2023-02-06T02:12:04.844Z,73.13
2023-02-06T02:14:34.811Z,73.18
2023-02-06T02:17:16.249Z,72.91
2023-02-06T02:20:33.786Z,72.85
2023-02-06T02:23:27.541Z,73.34
2023-02-06T02:26:33.542Z,73.43
2023-02-06T02:29:40.579Z,72.72
2023-02-06T02:32:54.830Z,72.11
2023-02-06T02:35:37.669Z,72.65
2023-02-06T02:38:21.422Z,73.20
2023-02-06T02:40:58.187Z,73.36
2023-02-06T02:43:36.510Z,72.77
2023-02-06T02:46:14.281Z,73.40
2023-02-06T02:48:46.809Z,72.48
2023-02-06T02:51:16.391Z,72.66
2023-02-06T02:53:44.444Z,72.61
2023-02-06T02:56:19.166Z,72.35
2023-02-06T02:58:54.500Z,72.99
2023-02-06T03:01:32.122Z,73.30
2023-02-06T03:04:11.725Z,72.37
2023-02-06T03:07:10.337Z,73.21
2023-02-06T03:09:54.423Z,71.83
2023-02-06T03:12:33.944Z,72.83
2023-02-06T03:15:13.079Z,72.34
2023-02-06T03:17:48.735Z,72.00
2023-02-06T03:20:18.291Z,72.47
2023-02-06T03:22:50.431Z,71.77
2023-02-06T03:25:34.946Z,72.15
2023-02-06T03:28:06.246Z,72.90
2023-02-06T03:30:35.610Z,72.93
2023-02-06T03:33:09.176Z,72.73
2023-02-06T03:35:39.294Z,72.21
2023-02-06T03:38:09.579Z,72.11
2023-02-06T03:40:39.650Z,72.87
2023-02-06T03:43:08.855Z,72.77
2023-02-06T03:45:42.129Z,73.63
2023-02-06T03:48:17.618Z,73.46
2023-02-06T03:50:50.133Z,73.28
2023-02-06T03:53:22.242Z,73.15
2023-02-06T03:55:55.413Z,73.63
2023-02-06T03:58:24.600Z,74.24
2023-02-06T04:00:53.753Z,72.43
2023-02-06T04:03:22.878Z,72.77
2023-02-06T04:05:51.037Z,71.82
2023-02-06T04:08:20.486Z,72.54
2023-02-06T04:10:48.696Z,72.39
2023-02-06T04:13:18.134Z,72.06
2023-02-06T04:15:46.115Z,72.55
2023-02-06T04:18:14.136Z,72.83
2023-02-06T04:20:42.250Z,72.42
2023-02-06T04:23:13.073Z,71.31
2023-02-06T04:25:42.458Z,72.34
2023-02-06T04:28:13.459Z,72.76
2023-02-06T04:30:41.666Z,72.96
2023-02-06T04:33:09.732Z,72.81
2023-02-06T04:35:38.067Z,71.69
2023-02-06T04:38:06.289Z,71.18
2023-02-06T04:40:34.554Z,72.18
2023-02-06T04:43:03.892Z,71.91
2023-02-06T04:45:32.291Z,72.23
2023-02-06T04:48:00.292Z,71.85
2023-02-06T04:50:31.263Z,72.19
2023-02-06T04:52:59.590Z,72.83
2023-02-06T04:55:27.667Z,71.47
2023-02-06T04:57:55.768Z,72.02
2023-02-06T05:00:25.313Z,71.76
2023-02-06T05:02:53.413Z,71.66
2023-02-06T05:05:21.601Z,71.46
2023-02-06T05:07:49.716Z,71.74
2023-02-06T05:10:18.005Z,71.57
2023-02-06T05:12:46.964Z,71.46
2023-02-06T05:15:16.169Z,72.16
2023-02-06T05:17:45.761Z,71.69
2023-02-06T05:20:14.011Z,72.35
2023-02-06T05:22:42.289Z,72.13
2023-02-06T05:25:10.371Z,71.72
2023-02-06T05:27:38.410Z,71.62
2023-02-06T05:30:07.522Z,71.21
2023-02-06T05:32:35.564Z,71.54
2023-02-06T05:35:05.515Z,72.27
2023-02-06T05:37:33.729Z,71.25
2023-02-06T05:40:01.776Z,71.82
2023-02-06T05:42:29.897Z,71.51
2023-02-06T05:44:57.958Z,71.92
2023-02-06T05:47:26.544Z,71.21
2023-02-06T05:49:54.532Z,70.57
2023-02-06T05:52:24.047Z,71.06
2023-02-06T05:54:52.105Z,71.94
2023-02-06T05:57:20.389Z,71.75
2023-02-06T05:59:48.581Z,71.46
2023-02-06T06:02:16.784Z,71.54
2023-02-06T06:04:45.688Z,70.75
2023-02-06T06:07:13.984Z,71.85
2023-02-06T06:09:43.969Z,70.89
2023-02-06T06:12:12.166Z,71.40
2023-02-06T06:14:40.143Z,71.45
2023-02-06T06:17:08.178Z,70.77
2023-02-06T06:19:36.629Z,70.89
2023-02-06T06:22:04.856Z,71.36
2023-02-06T06:24:32.909Z,70.86
2023-02-06T06:27:03.650Z,71.71
2023-02-06T06:29:31.839Z,71.03
2023-02-06T06:31:59.884Z,70.38
2023-02-06T06:34:28.347Z,69.81
2023-02-06T06:36:56.384Z,70.98
2023-02-06T06:39:24.578Z,69.93
2023-02-06T06:41:52.620Z,70.52
2023-02-06T06:44:22.396Z,70.21
2023-02-06T06:46:50.410Z,69.83
2023-02-06T06:49:18.605Z,70.21
2023-02-06T06:51:49.685Z,70.29
2023-02-06T06:54:19.534Z,70.94
2023-02-06T06:56:47.600Z,70.52
2023-02-06T06:59:15.762Z,69.79
2023-02-06T07:01:45.146Z,69.67
2023-02-06T07:04:13.140Z,69.23
2023-02-06T07:06:41.208Z,69.10
2023-02-06T07:09:09.222Z,69.58
2023-02-06T07:11:37.258Z,69.97
2023-02-06T07:14:05.621Z,69.97
2023-02-06T07:16:34.002Z,70.13
2023-02-06T07:19:03.529Z,70.57
2023-02-06T07:21:31.529Z,69.34
2023-02-06T07:23:59.927Z,70.06
2023-02-06T07:26:27.943Z,69.43
2023-02-06T07:28:56.069Z,70.72
2023-02-06T07:31:24.326Z,69.79
2023-02-06T07:33:52.772Z,69.95
2023-02-06T07:36:22.138Z,69.60
2023-02-06T07:38:50.263Z,69.05
2023-02-06T07:41:18.385Z,69.99
2023-02-06T07:43:46.383Z,69.05
2023-02-06T07:46:14.497Z,69.36
2023-02-06T07:48:42.550Z,69.74
2023-02-06T07:51:11.127Z,69.72
2023-02-06T07:53:40.539Z,68.92
2023-02-06T07:56:14.126Z,68.73
2023-02-06T07:58:42.666Z,69.52
2023-02-06T08:01:11.267Z,70.47
2023-02-06T08:03:39.826Z,69.61
2023-02-06T08:06:12.214Z,69.61
2023-02-06T08:08:42.105Z,69.38
2023-02-06T08:11:13.544Z,70.72
2023-02-06T08:13:41.720Z,69.31
2023-02-06T08:16:13.499Z,70.13
2023-02-06T08:18:42.121Z,68.33
2023-02-06T08:21:17.862Z,69.10
2023-02-06T08:23:47.662Z,68.75
2023-02-06T08:26:18.430Z,69.45
2023-02-06T08:28:50.661Z,69.34
2023-02-06T08:31:22.722Z,69.12
2023-02-06T08:33:51.449Z,68.66
2023-02-06T08:36:21.521Z,69.62
2023-02-06T08:38:52.280Z,69.67
2023-02-06T08:41:24.374Z,69.43
2023-02-06T08:43:54.933Z,67.92
2023-02-06T08:46:25.293Z,69.42
2023-02-06T08:48:57.518Z,69.26
2023-02-06T08:51:27.831Z,68.96
2023-02-06T08:53:59.733Z,69.35
2023-02-06T08:56:29.052Z,69.29
2023-02-06T08:58:59.524Z,68.67
2023-02-06T09:01:29.000Z,68.50
2023-02-06T09:03:58.938Z,68.82
2023-02-06T09:06:27.549Z,69.27
2023-02-06T09:08:58.868Z,68.99
2023-02-06T09:11:28.030Z,68.46
2023-02-06T09:13:58.366Z,68.64
2023-02-06T09:16:28.571Z,67.56
2023-02-06T09:19:02.025Z,68.34
2023-02-06T09:21:33.610Z,67.59
2023-02-06T09:24:07.557Z,67.12
2023-02-06T09:26:44.833Z,67.03
2023-02-06T09:29:18.457Z,66.80
2023-02-06T09:31:47.181Z,67.17
2023-02-06T09:34:15.294Z,68.00
2023-02-06T09:36:43.457Z,67.72
2023-02-06T09:39:12.920Z,66.84
2023-02-06T09:41:43.965Z,67.06
2023-02-06T09:44:19.318Z,66.15
2023-02-06T09:46:52.863Z,67.39
2023-02-06T09:49:26.376Z,66.93
2023-02-06T09:52:24.797Z,67.30
2023-02-06T09:55:04.322Z,66.76
2023-02-06T09:57:44.754Z,66.57
2023-02-06T10:00:29.610Z,66.44
2023-02-06T10:03:19.045Z,66.02
2023-02-06T10:05:54.972Z,65.65
2023-02-06T10:08:30.108Z,65.56
2023-02-06T10:11:03.879Z,65.58
2023-02-06T10:13:37.675Z,65.81
2023-02-06T10:16:14.929Z,65.65
2023-02-06T10:18:49.254Z,65.23
2023-02-06T10:21:29.478Z,64.15
2023-02-06T10:24:04.468Z,65.06
2023-02-06T10:26:38.257Z,65.25
2023-02-06T10:29:10.703Z,64.48
2023-02-06T10:31:56.278Z,65.81
2023-02-06T10:35:03.907Z,64.40
2023-02-06T10:37:57.866Z,64.71
2023-02-06T10:40:42.408Z,65.21
2023-02-06T10:43:24.030Z,64.81
2023-02-06T10:46:02.032Z,63.58
2023-02-06T10:48:35.641Z,63.88
2023-02-06T10:51:18.726Z,64.33
2023-02-06T10:53:52.939Z,63.41
2023-02-06T10:56:27.400Z,64.10
2023-02-06T10:59:02.227Z,64.32
2023-02-06T11:01:36.956Z,62.63
2023-02-06T11:04:13.143Z,62.79
2023-02-06T11:06:43.460Z,62.42
2023-02-06T11:09:12.000Z,63.48
2023-02-06T11:11:46.675Z,61.63
2023-02-06T11:14:25.055Z,61.32
2023-02-06T11:16:54.564Z,61.05
2023-02-06T11:19:28.205Z,61.68
2023-02-06T11:22:09.785Z,60.86
2023-02-06T11:24:38.907Z,60.42
2023-02-06T11:27:17.951Z,61.08
2023-02-06T11:29:52.162Z,60.22
2023-02-06T11:32:35.898Z,61.34
2023-02-06T11:35:08.576Z,61.17
2023-02-06T11:37:39.899Z,62.04
2023-02-06T11:40:27.862Z,59.42
2023-02-06T11:43:19.252Z,62.13
2023-02-06T11:45:52.116Z,61.73
2023-02-06T11:48:42.470Z,62.61
2023-02-06T11:51:13.827Z,62.52
2023-02-06T11:53:57.642Z,62.41
2023-02-06T11:56:28.253Z,63.14
2023-02-06T11:59:07.112Z,62.80
2023-02-06T12:01:47.514Z,62.56
2023-02-06T12:04:23.694Z,63.65
2023-02-06T12:06:59.537Z,63.13
2023-02-06T12:09:28.775Z,63.43
2023-02-06T12:12:02.852Z,62.71
2023-02-06T12:14:38.284Z,62.05
2023-02-06T12:17:27.998Z,61.54
2023-02-06T12:20:05.216Z,61.97
2023-02-06T12:22:40.327Z,62.62
2023-02-06T12:25:26.981Z,62.21
2023-02-06T12:28:00.761Z,62.26
2023-02-06T12:30:37.555Z,62.13
2023-02-06T12:33:14.012Z,61.61
2023-02-06T12:35:47.974Z,61.49
2023-02-06T12:38:27.212Z,61.95
2023-02-06T12:41:11.206Z,61.83
2023-02-06T12:43:42.108Z,62.05
2023-02-06T12:46:18.052Z,62.09
2023-02-06T12:48:54.192Z,61.03
2023-02-06T12:51:28.471Z,60.35
2023-02-06T12:54:05.498Z,60.17
2023-02-06T12:56:40.709Z,60.78
2023-02-06T12:59:56.760Z,61.78
2023-02-06T13:02:48.371Z,60.77
2023-02-06T13:05:33.811Z,60.41
2023-02-06T13:08:10.250Z,60.79
2023-02-06T13:10:40.312Z,60.76
2023-02-06T13:13:27.006Z,61.48
2023-02-06T13:15:57.497Z,60.79
2023-02-06T13:18:54.133Z,60.57
2023-02-06T13:21:28.780Z,61.35
2023-02-06T13:24:16.551Z,60.46
2023-02-06T13:27:12.875Z,60.28
2023-02-06T13:29:45.217Z,60.62
2023-02-06T13:32:46.161Z,59.72
2023-02-06T13:35:27.355Z,60.62
2023-02-06T13:38:38.261Z,59.46
2023-02-06T13:41:30.562Z,60.45
2023-02-06T13:44:05.126Z,59.99
2023-02-06T13:47:18.093Z,59.66
2023-02-06T13:50:25.846Z,59.68
2023-02-06T13:53:30.616Z,60.15
2023-02-06T13:56:28.984Z,60.28
2023-02-06T13:59:05.975Z,61.35
2023-02-06T14:01:34.799Z,61.00
2023-02-06T14:04:12.254Z,61.01
2023-02-06T14:06:58.962Z,60.71
2023-02-06T14:09:56.837Z,60.09
2023-02-06T14:12:44.319Z,60.01
2023-02-06T14:15:32.484Z,60.56
2023-02-06T14:18:26.952Z,60.42
2023-02-06T14:21:08.880Z,59.78
2023-02-06T14:24:00.617Z,59.85
2023-02-06T14:26:40.776Z,60.30
2023-02-06T14:29:30.915Z,59.67
2023-02-06T14:32:22.345Z,59.27
2023-02-06T14:35:07.039Z,59.76
2023-02-06T14:37:57.108Z,60.27
2023-02-06T14:40:29.779Z,60.78
2023-02-06T14:43:03.325Z,60.49
2023-02-06T14:45:42.205Z,60.66
2023-02-06T14:48:21.875Z,60.11
2023-02-06T14:50:56.325Z,60.32
2023-02-06T14:53:29.060Z,60.77
2023-02-06T14:56:10.344Z,61.30
2023-02-06T14:58:38.421Z,59.69
2023-02-06T15:01:21.538Z,59.53
2023-02-06T15:03:54.521Z,59.64
2023-02-06T15:06:36.530Z,60.40
2023-02-06T15:09:06.360Z,61.14
2023-02-06T15:11:35.452Z,60.75
2023-02-06T15:14:06.562Z,60.21
2023-02-06T15:16:48.844Z,60.01
2023-02-06T15:19:20.846Z,59.96
2023-02-06T15:21:50.131Z,59.24
2023-02-06T15:24:58.716Z,58.76
2023-02-06T15:27:31.026Z,60.18
2023-02-06T15:30:00.384Z,60.30
2023-02-06T15:32:38.553Z,60.80
2023-02-06T15:35:22.215Z,60.68
2023-02-06T15:37:51.291Z,60.99
2023-02-06T15:40:27.682Z,60.29
2023-02-06T15:42:56.527Z,59.33
2023-02-06T15:45:29.644Z,60.42
2023-02-06T15:48:08.514Z,60.21
2023-02-06T15:50:37.096Z,60.44
2023-02-06T15:53:19.094Z,60.25
2023-02-06T15:55:56.546Z,61.22
2023-02-06T15:58:26.105Z,60.20
2023-02-06T16:00:56.667Z,60.05
2023-02-06T16:03:30.292Z,60.64
2023-02-06T16:05:58.872Z,60.28
2023-02-06T16:08:33.043Z,60.34
2023-02-06T16:11:05.496Z,61.29
2023-02-06T16:13:34.001Z,60.84
2023-02-06T16:16:08.322Z,61.01
2023-02-06T16:18:39.625Z,61.15
2023-02-06T16:21:28.809Z,61.27
2023-02-06T16:24:16.452Z,61.19
2023-02-06T16:26:47.956Z,61.18
2023-02-06T16:29:26.775Z,60.95
2023-02-06T16:32:00.971Z,61.07
2023-02-06T16:34:39.083Z,60.51
2023-02-06T16:37:12.828Z,61.07
2023-02-06T16:39:42.995Z,60.66
2023-02-06T16:42:18.559Z,61.44
2023-02-06T16:44:50.250Z,61.23
2023-02-06T16:47:21.895Z,61.30
2023-02-06T16:49:52.166Z,60.56
2023-02-06T16:52:25.460Z,62.33
2023-02-06T16:54:55.637Z,61.39
2023-02-06T16:57:29.042Z,61.47
2023-02-06T16:59:57.792Z,61.53
2023-02-06T17:02:27.802Z,61.20
2023-02-06T17:04:57.420Z,61.55
2023-02-06T17:07:31.669Z,61.51
2023-02-06T17:10:00.280Z,61.88
2023-02-06T17:12:29.188Z,61.60
2023-02-06T17:14:58.375Z,61.54
2023-02-06T17:17:27.142Z,61.93
2023-02-06T17:19:56.463Z,61.51
2023-02-06T17:22:24.828Z,61.11
2023-02-06T17:24:52.856Z,61.75
2023-02-06T17:27:22.842Z,62.30
2023-02-06T17:29:53.689Z,60.90
2023-02-06T17:32:22.973Z,61.27
2023-02-06T17:34:54.020Z,61.07
2023-02-06T17:37:23.446Z,61.80
2023-02-06T17:39:53.100Z,61.90
2023-02-06T17:42:23.132Z,62.42
2023-02-06T17:44:51.394Z,62.25
2023-02-06T17:47:19.442Z,62.09
2023-02-06T17:49:47.760Z,62.45
2023-02-06T17:52:16.160Z,62.43
2023-02-06T17:54:45.729Z,61.93
2023-02-06T17:57:14.277Z,61.65
2023-02-06T17:59:42.296Z,61.61
2023-02-06T18:02:14.605Z,62.08
2023-02-06T18:04:42.835Z,60.45
2023-02-06T18:07:10.916Z,61.02
2023-02-06T18:09:41.034Z,61.23
2023-02-06T18:12:11.464Z,60.64
2023-02-06T18:14:40.667Z,62.10
2023-02-06T18:17:09.336Z,61.23
2023-02-06T18:19:42.040Z,61.07
2023-02-06T18:22:11.901Z,61.62
2023-02-06T18:24:40.627Z,61.13
2023-02-06T18:27:11.084Z,61.19
2023-02-06T18:29:49.430Z,61.37
2023-02-06T18:32:20.477Z,61.66
2023-02-06T18:34:49.035Z,60.88
2023-02-06T18:37:17.578Z,60.68
2023-02-06T18:39:45.601Z,61.34
2023-02-06T18:42:38.155Z,61.95
2023-02-06T18:45:06.799Z,61.56
2023-02-06T18:47:34.786Z,60.90
2023-02-06T18:50:03.017Z,60.49
2023-02-06T18:52:31.995Z,60.97
2023-02-06T18:55:00.148Z,61.54
2023-02-06T18:57:29.636Z,61.36
2023-02-06T18:59:58.797Z,60.77
2023-02-06T19:02:27.449Z,60.59
2023-02-06T19:04:55.467Z,60.95
2023-02-06T19:07:23.475Z,60.91
2023-02-06T19:09:51.505Z,61.57
2023-02-06T19:12:19.582Z,62.12
2023-02-06T19:14:49.132Z,61.61
2023-02-06T19:17:18.162Z,60.67
2023-02-06T19:19:46.167Z,62.15
2023-02-06T19:22:14.242Z,61.63
2023-02-06T19:24:42.874Z,61.50
2023-02-06T19:27:14.654Z,61.48
2023-02-06T19:29:43.012Z,62.01
2023-02-06T19:32:12.491Z,61.42
2023-02-06T19:34:44.056Z,61.42
2023-02-06T19:37:16.721Z,61.96
2023-02-06T19:39:45.324Z,63.32
2023-02-06T19:42:15.464Z,63.88
2023-02-06T19:44:44.141Z,63.64
2023-02-06T19:47:13.495Z,64.27
2023-02-06T19:49:43.535Z,64.11
2023-02-06T19:52:14.390Z,65.02
2023-02-06T19:54:42.632Z,65.90
2023-02-06T19:57:10.880Z,66.61
2023-02-06T19:59:39.000Z,66.98
2023-02-06T20:02:07.081Z,66.38
2023-02-06T20:04:37.891Z,66.99
2023-02-06T20:07:06.199Z,67.52
2023-02-06T20:09:34.519Z,67.32
2023-02-06T20:12:02.974Z,67.97
2023-02-06T20:14:31.615Z,67.75
2023-02-06T20:16:59.760Z,67.04
2023-02-06T20:19:29.516Z,67.86
2023-02-06T20:22:00.859Z,67.59
2023-02-06T20:24:31.991Z,67.02
2023-02-06T20:27:05.807Z,67.47
2023-02-06T20:29:36.464Z,67.13
2023-02-06T20:32:06.221Z,66.46
2023-02-06T20:34:35.841Z,66.87
2023-02-06T20:37:05.911Z,66.81
2023-02-06T20:39:34.552Z,66.88
2023-02-06T20:42:03.215Z,66.63
2023-02-06T20:44:31.401Z,66.32
2023-02-06T20:46:59.431Z,66.44
2023-02-06T20:49:31.131Z,67.03
2023-02-06T20:51:59.711Z,67.03
2023-02-06T20:54:30.756Z,66.65
2023-02-06T20:57:00.332Z,66.75
2023-02-06T20:59:29.292Z,66.23
2023-02-06T21:01:57.286Z,66.37
2023-02-06T21:04:25.722Z,66.24
2023-02-06T21:06:53.828Z,66.79
2023-02-06T21:09:21.903Z,66.79
2023-02-06T21:11:51.527Z,66.86
2023-02-06T21:14:20.497Z,66.25
2023-02-06T21:16:49.221Z,66.48
2023-02-06T21:19:19.726Z,67.20
2023-02-06T21:21:48.694Z,67.06
2023-02-06T21:24:18.312Z,67.00
2023-02-06T21:26:46.365Z,66.52
2023-02-06T21:29:16.650Z,66.26
2023-02-06T21:31:46.383Z,66.41
2023-02-06T21:34:18.388Z,66.38
2023-02-06T21:36:47.267Z,66.57
2023-02-06T21:39:18.385Z,67.28
2023-02-06T21:41:47.631Z,67.15
2023-02-06T21:44:16.960Z,65.66
2023-02-06T21:46:44.989Z,66.07
2023-02-06T21:49:14.280Z,65.92
2023-02-06T21:51:42.473Z,65.47
2023-02-06T21:54:10.999Z,66.19
2023-02-06T21:56:39.873Z,66.43
2023-02-06T21:59:09.139Z,67.06
2023-02-06T22:01:40.839Z,67.25
2023-02-06T22:04:11.023Z,66.83
2023-02-06T22:06:39.638Z,66.72
2023-02-06T22:09:12.579Z,66.03
2023-02-06T22:11:41.548Z,66.71
2023-02-06T22:14:13.819Z,66.05
2023-02-06T22:16:46.415Z,65.48
2023-02-06T22:19:15.622Z,65.81
2023-02-06T22:21:43.723Z,65.06
2023-02-06T22:24:12.950Z,65.62
2023-02-06T22:26:41.480Z,65.27
2023-02-06T22:29:13.868Z,64.92
2023-02-06T22:31:44.904Z,65.45
2023-02-06T22:34:17.552Z,65.68
2023-02-06T22:36:45.912Z,65.19
2023-02-06T22:39:16.010Z,65.23
2023-02-06T22:41:46.786Z,65.85
2023-02-06T22:44:17.077Z,65.31
2023-02-06T22:46:49.918Z,65.44
2023-02-06T22:49:19.670Z,65.63
2023-02-06T22:51:48.290Z,65.38
2023-02-06T22:54:16.533Z,64.99
2023-02-06T22:56:45.392Z,65.45
2023-02-06T22:59:16.824Z,64.69
2023-02-06T23:01:48.734Z,64.61
2023-02-06T23:04:19.422Z,64.94
2023-02-06T23:06:48.159Z,65.29
2023-02-06T23:09:20.309Z,64.88
2023-02-06T23:11:49.074Z,64.72
2023-02-06T23:14:18.728Z,64.87
2023-02-06T23:16:48.875Z,64.47
2023-02-06T23:19:18.936Z,65.30
2023-02-06T23:21:49.606Z,65.08
2023-02-06T23:24:20.149Z,64.26
2023-02-06T23:26:50.558Z,64.67
2023-02-06T23:29:20.766Z,65.16
2023-02-06T23:31:50.801Z,64.90
2023-02-06T23:34:23.503Z,64.75
2023-02-06T23:36:52.789Z,64.52
2023-02-06T23:39:20.966Z,64.98
2023-02-06T23:41:49.097Z,65.54
2023-02-06T23:44:17.223Z,66.05
2023-02-06T23:46:45.398Z,66.49
2023-02-06T23:49:14.765Z,66.45
2023-02-06T23:51:42.878Z,66.16
2023-02-06T23:54:10.999Z,66.54
2023-02-06T23:56:39.733Z,66.58
2023-02-06T23:59:07.855Z,66.63
